sensor_id;sensor_type;location;lat;lon;timestamp;P1;durP1;ratioP1;P2;durP2;ratioP2
33864;SDS011;20159;51.072;13.526;2022-09-21T00:01:13;5.55;;;3.35;;
33864;SDS011;20159;51.072;13.526;2022-09-21T00:03:39;4.75;;;3.30;;
33864;SDS011;20159;51.072;13.526;2022-09-21T00:06:07;4.40;;;3.22;;
33864;SDS011;20159;51.072;13.526;2022-09-21T00:08:35;3.85;;;3.40;;
33864;SDS011;20159;51.072;13.526;2022-09-21T00:11:02;4.45;;;3.33;;
33864;SDS011;20159;51.072;13.526;2022-09-21T00:13:28;5.15;;;3.28;;
33864;SDS011;20159;51.072;13.526;2022-09-21T00:15:54;4.60;;;3.30;;
33864;SDS011;20159;51.072;13.526;2022-09-21T00:18:21;5.38;;;3.35;;
33864;SDS011;20159;51.072;13.526;2022-09-21T00:20:47;5.15;;;3.15;;
33864;SDS011;20159;51.072;13.526;2022-09-21T00:23:13;5.38;;;3.10;;
33864;SDS011;20159;51.072;13.526;2022-09-21T00:25:38;4.82;;;3.08;;
33864;SDS011;20159;51.072;13.526;2022-09-21T00:28:04;4.50;;;3.40;;
33864;SDS011;20159;51.072;13.526;2022-09-21T00:30:29;3.92;;;2.97;;
33864;SDS011;20159;51.072;13.526;2022-09-21T00:32:55;4.93;;;3.10;;
33864;SDS011;20159;51.072;13.526;2022-09-21T00:35:20;4.85;;;3.08;;
33864;SDS011;20159;51.072;13.526;2022-09-21T00:37:46;3.40;;;2.80;;
33864;SDS011;20159;51.072;13.526;2022-09-21T00:40:12;5.85;;;3.25;;
33864;SDS011;20159;51.072;13.526;2022-09-21T00:42:37;5.68;;;3.03;;
33864;SDS011;20159;51.072;13.526;2022-09-21T00:45:03;5.50;;;3.05;;
33864;SDS011;20159;51.072;13.526;2022-09-21T00:47:33;3.55;;;2.53;;
33864;SDS011;20159;51.072;13.526;2022-09-21T00:50:11;4.10;;;2.85;;
33864;SDS011;20159;51.072;13.526;2022-09-21T00:52:43;4.05;;;3.13;;
33864;SDS011;20159;51.072;13.526;2022-09-21T00:57:52;9.30;;;3.10;;
33864;SDS011;20159;51.072;13.526;2022-09-21T01:00:22;4.35;;;2.97;;
33864;SDS011;20159;51.072;13.526;2022-09-21T01:02:48;4.93;;;2.90;;
33864;SDS011;20159;51.072;13.526;2022-09-21T01:05:13;4.20;;;3.25;;
33864;SDS011;20159;51.072;13.526;2022-09-21T01:07:41;4.22;;;3.10;;
33864;SDS011;20159;51.072;13.526;2022-09-21T01:10:11;3.20;;;2.72;;
33864;SDS011;20159;51.072;13.526;2022-09-21T01:15:33;7.20;;;3.10;;
33864;SDS011;20159;51.072;13.526;2022-09-21T01:18:20;6.07;;;3.47;;
33864;SDS011;20159;51.072;13.526;2022-09-21T01:21:14;5.43;;;2.97;;
33864;SDS011;20159;51.072;13.526;2022-09-21T01:26:58;5.15;;;3.20;;
33864;SDS011;20159;51.072;13.526;2022-09-21T01:29:32;4.35;;;3.47;;
33864;SDS011;20159;51.072;13.526;2022-09-21T01:34:54;5.13;;;3.30;;
33864;SDS011;20159;51.072;13.526;2022-09-21T01:37:46;4.90;;;3.72;;
33864;SDS011;20159;51.072;13.526;2022-09-21T01:40:48;4.55;;;3.88;;
33864;SDS011;20159;51.072;13.526;2022-09-21T01:43:17;5.80;;;3.92;;
33864;SDS011;20159;51.072;13.526;2022-09-21T01:45:49;5.22;;;4.20;;
33864;SDS011;20159;51.072;13.526;2022-09-21T01:48:18;5.35;;;4.35;;
33864;SDS011;20159;51.072;13.526;2022-09-21T01:50:49;6.22;;;4.50;;
33864;SDS011;20159;51.072;13.526;2022-09-21T01:53:20;7.15;;;5.00;;
33864;SDS011;20159;51.072;13.526;2022-09-21T01:55:57;5.68;;;4.72;;
33864;SDS011;20159;51.072;13.526;2022-09-21T02:00:58;6.88;;;4.63;;
33864;SDS011;20159;51.072;13.526;2022-09-21T02:03:28;7.30;;;5.07;;
33864;SDS011;20159;51.072;13.526;2022-09-21T02:05:59;6.13;;;5.30;;
33864;SDS011;20159;51.072;13.526;2022-09-21T02:08:26;6.00;;;5.30;;
33864;SDS011;20159;51.072;13.526;2022-09-21T02:10:56;8.75;;;6.13;;
33864;SDS011;20159;51.072;13.526;2022-09-21T02:13:24;7.18;;;5.72;;
33864;SDS011;20159;51.072;13.526;2022-09-21T02:16:05;6.75;;;6.05;;
33864;SDS011;20159;51.072;13.526;2022-09-21T02:18:42;6.82;;;5.75;;
33864;SDS011;20159;51.072;13.526;2022-09-21T02:21:12;6.47;;;5.75;;
33864;SDS011;20159;51.072;13.526;2022-09-21T02:23:59;6.97;;;5.85;;
33864;SDS011;20159;51.072;13.526;2022-09-21T02:26:46;7.68;;;5.95;;
33864;SDS011;20159;51.072;13.526;2022-09-21T02:29:20;7.32;;;6.10;;
33864;SDS011;20159;51.072;13.526;2022-09-21T02:31:54;10.77;;;6.00;;
33864;SDS011;20159;51.072;13.526;2022-09-21T02:42:26;7.30;;;6.00;;
33864;SDS011;20159;51.072;13.526;2022-09-21T02:44:56;9.93;;;6.13;;
33864;SDS011;20159;51.072;13.526;2022-09-21T02:47:32;8.48;;;6.18;;
33864;SDS011;20159;51.072;13.526;2022-09-21T02:50:24;7.43;;;5.68;;
33864;SDS011;20159;51.072;13.526;2022-09-21T02:53:03;8.57;;;5.90;;
33864;SDS011;20159;51.072;13.526;2022-09-21T02:55:30;7.45;;;6.03;;
33864;SDS011;20159;51.072;13.526;2022-09-21T02:57:57;8.88;;;6.10;;
33864;SDS011;20159;51.072;13.526;2022-09-21T03:00:25;7.00;;;5.50;;
33864;SDS011;20159;51.072;13.526;2022-09-21T03:02:51;7.78;;;6.60;;
33864;SDS011;20159;51.072;13.526;2022-09-21T03:05:17;7.72;;;6.38;;
33864;SDS011;20159;51.072;13.526;2022-09-21T03:07:42;9.27;;;6.40;;
33864;SDS011;20159;51.072;13.526;2022-09-21T03:10:08;10.80;;;6.65;;
33864;SDS011;20159;51.072;13.526;2022-09-21T03:12:34;8.45;;;6.20;;
33864;SDS011;20159;51.072;13.526;2022-09-21T03:14:59;8.18;;;6.28;;
33864;SDS011;20159;51.072;13.526;2022-09-21T03:17:25;6.75;;;6.05;;
33864;SDS011;20159;51.072;13.526;2022-09-21T03:19:51;8.25;;;5.90;;
33864;SDS011;20159;51.072;13.526;2022-09-21T03:22:19;7.80;;;6.22;;
33864;SDS011;20159;51.072;13.526;2022-09-21T03:24:48;7.15;;;5.85;;
33864;SDS011;20159;51.072;13.526;2022-09-21T03:27:18;7.93;;;6.22;;
33864;SDS011;20159;51.072;13.526;2022-09-21T03:29:45;7.53;;;6.45;;
33864;SDS011;20159;51.072;13.526;2022-09-21T03:32:11;7.53;;;5.82;;
33864;SDS011;20159;51.072;13.526;2022-09-21T03:34:37;8.25;;;6.55;;
33864;SDS011;20159;51.072;13.526;2022-09-21T03:37:04;7.60;;;6.55;;
33864;SDS011;20159;51.072;13.526;2022-09-21T03:39:30;10.13;;;6.25;;
33864;SDS011;20159;51.072;13.526;2022-09-21T03:41:56;9.27;;;6.60;;
33864;SDS011;20159;51.072;13.526;2022-09-21T03:44:22;7.88;;;6.50;;
33864;SDS011;20159;51.072;13.526;2022-09-21T03:46:48;7.15;;;5.57;;
33864;SDS011;20159;51.072;13.526;2022-09-21T03:49:14;8.88;;;6.80;;
33864;SDS011;20159;51.072;13.526;2022-09-21T03:51:40;8.50;;;6.75;;
33864;SDS011;20159;51.072;13.526;2022-09-21T03:54:06;9.02;;;6.60;;
33864;SDS011;20159;51.072;13.526;2022-09-21T03:56:31;8.30;;;6.78;;
33864;SDS011;20159;51.072;13.526;2022-09-21T03:58:57;7.78;;;6.70;;
33864;SDS011;20159;51.072;13.526;2022-09-21T04:01:22;11.45;;;6.25;;
33864;SDS011;20159;51.072;13.526;2022-09-21T04:03:48;10.20;;;6.82;;
33864;SDS011;20159;51.072;13.526;2022-09-21T04:06:13;9.35;;;6.43;;
33864;SDS011;20159;51.072;13.526;2022-09-21T04:08:39;8.75;;;6.45;;
33864;SDS011;20159;51.072;13.526;2022-09-21T04:11:09;7.82;;;6.75;;
33864;SDS011;20159;51.072;13.526;2022-09-21T04:13:35;8.35;;;6.57;;
33864;SDS011;20159;51.072;13.526;2022-09-21T04:16:01;13.27;;;7.10;;
33864;SDS011;20159;51.072;13.526;2022-09-21T04:18:26;8.57;;;6.78;;
33864;SDS011;20159;51.072;13.526;2022-09-21T04:20:52;8.32;;;7.43;;
33864;SDS011;20159;51.072;13.526;2022-09-21T04:23:18;8.43;;;7.28;;
33864;SDS011;20159;51.072;13.526;2022-09-21T04:25:44;9.43;;;7.55;;
33864;SDS011;20159;51.072;13.526;2022-09-21T04:28:12;8.70;;;7.78;;
33864;SDS011;20159;51.072;13.526;2022-09-21T04:30:38;9.38;;;7.68;;
33864;SDS011;20159;51.072;13.526;2022-09-21T04:33:04;9.55;;;7.93;;
33864;SDS011;20159;51.072;13.526;2022-09-21T04:35:29;9.32;;;7.28;;
33864;SDS011;20159;51.072;13.526;2022-09-21T04:37:55;8.85;;;7.90;;
33864;SDS011;20159;51.072;13.526;2022-09-21T04:40:21;8.30;;;7.43;;
33864;SDS011;20159;51.072;13.526;2022-09-21T04:42:50;9.93;;;7.53;;
33864;SDS011;20159;51.072;13.526;2022-09-21T04:45:17;9.93;;;8.60;;
33864;SDS011;20159;51.072;13.526;2022-09-21T04:47:43;10.38;;;7.75;;
33864;SDS011;20159;51.072;13.526;2022-09-21T04:50:09;10.13;;;8.55;;
33864;SDS011;20159;51.072;13.526;2022-09-21T04:52:35;11.77;;;8.95;;
33864;SDS011;20159;51.072;13.526;2022-09-21T04:55:00;9.98;;;8.25;;
33864;SDS011;20159;51.072;13.526;2022-09-21T04:57:26;12.43;;;8.82;;
33864;SDS011;20159;51.072;13.526;2022-09-21T04:59:51;14.63;;;8.30;;
33864;SDS011;20159;51.072;13.526;2022-09-21T05:02:17;10.95;;;8.48;;
33864;SDS011;20159;51.072;13.526;2022-09-21T05:04:43;10.15;;;8.18;;
33864;SDS011;20159;51.072;13.526;2022-09-21T05:07:08;9.48;;;7.80;;
33864;SDS011;20159;51.072;13.526;2022-09-21T05:09:34;11.13;;;8.73;;
33864;SDS011;20159;51.072;13.526;2022-09-21T05:12:18;11.88;;;8.90;;
33864;SDS011;20159;51.072;13.526;2022-09-21T05:14:43;10.43;;;8.93;;
33864;SDS011;20159;51.072;13.526;2022-09-21T05:17:10;10.27;;;8.63;;
33864;SDS011;20159;51.072;13.526;2022-09-21T05:19:36;10.50;;;9.07;;
33864;SDS011;20159;51.072;13.526;2022-09-21T05:22:01;11.85;;;9.35;;
33864;SDS011;20159;51.072;13.526;2022-09-21T05:24:27;11.32;;;8.60;;
33864;SDS011;20159;51.072;13.526;2022-09-21T05:26:52;11.95;;;8.88;;
33864;SDS011;20159;51.072;13.526;2022-09-21T05:29:18;12.70;;;9.73;;
33864;SDS011;20159;51.072;13.526;2022-09-21T05:31:58;11.32;;;8.65;;
33864;SDS011;20159;51.072;13.526;2022-09-21T05:40:11;11.13;;;8.95;;
33864;SDS011;20159;51.072;13.526;2022-09-21T05:42:37;13.30;;;9.60;;
33864;SDS011;20159;51.072;13.526;2022-09-21T05:45:03;13.80;;;10.38;;
33864;SDS011;20159;51.072;13.526;2022-09-21T05:50:15;10.40;;;8.85;;
33864;SDS011;20159;51.072;13.526;2022-09-21T05:53:03;11.73;;;8.98;;
33864;SDS011;20159;51.072;13.526;2022-09-21T06:01:33;10.38;;;7.78;;
33864;SDS011;20159;51.072;13.526;2022-09-21T06:04:20;10.13;;;8.68;;
33864;SDS011;20159;51.072;13.526;2022-09-21T06:06:46;9.32;;;8.35;;
33864;SDS011;20159;51.072;13.526;2022-09-21T06:09:12;13.18;;;9.27;;
33864;SDS011;20159;51.072;13.526;2022-09-21T06:11:37;10.43;;;8.90;;
33864;SDS011;20159;51.072;13.526;2022-09-21T06:14:02;10.05;;;8.38;;
33864;SDS011;20159;51.072;13.526;2022-09-21T06:16:38;9.15;;;8.23;;
33864;SDS011;20159;51.072;13.526;2022-09-21T06:19:04;9.75;;;8.20;;
33864;SDS011;20159;51.072;13.526;2022-09-21T06:21:30;9.77;;;8.40;;
33864;SDS011;20159;51.072;13.526;2022-09-21T06:23:56;10.88;;;8.52;;
33864;SDS011;20159;51.072;13.526;2022-09-21T06:26:21;9.40;;;8.40;;
33864;SDS011;20159;51.072;13.526;2022-09-21T06:28:47;10.02;;;9.00;;
33864;SDS011;20159;51.072;13.526;2022-09-21T06:31:12;9.85;;;7.93;;
33864;SDS011;20159;51.072;13.526;2022-09-21T06:33:38;9.07;;;7.60;;
33864;SDS011;20159;51.072;13.526;2022-09-21T06:36:03;8.90;;;7.88;;
33864;SDS011;20159;51.072;13.526;2022-09-21T06:38:29;12.45;;;7.75;;
33864;SDS011;20159;51.072;13.526;2022-09-21T06:40:54;8.98;;;8.02;;
33864;SDS011;20159;51.072;13.526;2022-09-21T06:43:24;9.40;;;8.05;;
33864;SDS011;20159;51.072;13.526;2022-09-21T06:45:53;9.77;;;7.97;;
33864;SDS011;20159;51.072;13.526;2022-09-21T06:48:20;9.48;;;8.00;;
33864;SDS011;20159;51.072;13.526;2022-09-21T06:50:46;9.07;;;8.05;;
33864;SDS011;20159;51.072;13.526;2022-09-21T06:53:11;9.60;;;7.22;;
33864;SDS011;20159;51.072;13.526;2022-09-21T06:55:38;8.77;;;7.72;;
33864;SDS011;20159;51.072;13.526;2022-09-21T06:58:04;9.60;;;7.47;;
33864;SDS011;20159;51.072;13.526;2022-09-21T07:00:29;8.07;;;7.00;;
33864;SDS011;20159;51.072;13.526;2022-09-21T07:02:56;8.32;;;7.32;;
33864;SDS011;20159;51.072;13.526;2022-09-21T07:05:21;13.73;;;8.02;;
33864;SDS011;20159;51.072;13.526;2022-09-21T07:07:47;10.60;;;7.07;;
33864;SDS011;20159;51.072;13.526;2022-09-21T07:10:12;8.27;;;7.30;;
33864;SDS011;20159;51.072;13.526;2022-09-21T07:12:38;9.00;;;7.28;;
33864;SDS011;20159;51.072;13.526;2022-09-21T07:15:05;7.50;;;6.60;;
33864;SDS011;20159;51.072;13.526;2022-09-21T07:17:31;7.75;;;6.35;;
33864;SDS011;20159;51.072;13.526;2022-09-21T07:19:58;9.32;;;7.10;;
33864;SDS011;20159;51.072;13.526;2022-09-21T07:22:25;7.32;;;6.10;;
33864;SDS011;20159;51.072;13.526;2022-09-21T07:24:52;9.82;;;6.80;;
33864;SDS011;20159;51.072;13.526;2022-09-21T07:27:18;10.85;;;6.18;;
33864;SDS011;20159;51.072;13.526;2022-09-21T07:29:44;8.00;;;6.70;;
33864;SDS011;20159;51.072;13.526;2022-09-21T07:32:11;7.13;;;5.45;;
33864;SDS011;20159;51.072;13.526;2022-09-21T07:34:37;6.95;;;5.45;;
33864;SDS011;20159;51.072;13.526;2022-09-21T07:37:02;6.65;;;5.28;;
33864;SDS011;20159;51.072;13.526;2022-09-21T07:39:28;6.35;;;5.38;;
33864;SDS011;20159;51.072;13.526;2022-09-21T07:41:54;7.40;;;5.65;;
33864;SDS011;20159;51.072;13.526;2022-09-21T07:44:20;9.75;;;5.13;;
33864;SDS011;20159;51.072;13.526;2022-09-21T07:46:49;8.80;;;6.20;;
33864;SDS011;20159;51.072;13.526;2022-09-21T07:49:15;6.93;;;4.68;;
33864;SDS011;20159;51.072;13.526;2022-09-21T07:51:40;8.18;;;4.55;;
33864;SDS011;20159;51.072;13.526;2022-09-21T07:54:07;4.95;;;4.25;;
33864;SDS011;20159;51.072;13.526;2022-09-21T07:56:35;5.03;;;3.78;;
33864;SDS011;20159;51.072;13.526;2022-09-21T07:59:01;5.65;;;3.70;;
33864;SDS011;20159;51.072;13.526;2022-09-21T08:01:30;5.10;;;3.50;;
33864;SDS011;20159;51.072;13.526;2022-09-21T08:04:00;6.15;;;3.58;;
33864;SDS011;20159;51.072;13.526;2022-09-21T08:06:29;5.47;;;3.20;;
33864;SDS011;20159;51.072;13.526;2022-09-21T08:08:56;6.63;;;3.20;;
33864;SDS011;20159;51.072;13.526;2022-09-21T08:11:26;3.58;;;2.90;;
33864;SDS011;20159;51.072;13.526;2022-09-21T08:13:55;3.55;;;2.75;;
33864;SDS011;20159;51.072;13.526;2022-09-21T08:16:22;4.25;;;2.47;;
33864;SDS011;20159;51.072;13.526;2022-09-21T08:18:48;4.03;;;2.30;;
33864;SDS011;20159;51.072;13.526;2022-09-21T08:21:15;4.95;;;2.20;;
33864;SDS011;20159;51.072;13.526;2022-09-21T08:23:40;3.65;;;2.50;;
33864;SDS011;20159;51.072;13.526;2022-09-21T08:26:07;3.25;;;2.40;;
33864;SDS011;20159;51.072;13.526;2022-09-21T08:28:35;4.80;;;2.63;;
33864;SDS011;20159;51.072;13.526;2022-09-21T08:31:04;3.05;;;2.55;;
33864;SDS011;20159;51.072;13.526;2022-09-21T08:33:32;3.05;;;2.10;;
33864;SDS011;20159;51.072;13.526;2022-09-21T08:35:58;5.88;;;2.78;;
33864;SDS011;20159;51.072;13.526;2022-09-21T08:38:25;2.33;;;2.05;;
33864;SDS011;20159;51.072;13.526;2022-09-21T08:40:51;3.58;;;2.45;;
33864;SDS011;20159;51.072;13.526;2022-09-21T08:43:34;3.30;;;2.58;;
33864;SDS011;20159;51.072;13.526;2022-09-21T08:46:14;3.63;;;2.40;;
33864;SDS011;20159;51.072;13.526;2022-09-21T08:48:45;4.10;;;2.20;;
33864;SDS011;20159;51.072;13.526;2022-09-21T08:51:22;4.63;;;1.95;;
33864;SDS011;20159;51.072;13.526;2022-09-21T08:53:51;3.85;;;2.22;;
33864;SDS011;20159;51.072;13.526;2022-09-21T08:56:21;3.45;;;2.10;;
33864;SDS011;20159;51.072;13.526;2022-09-21T08:58:48;2.80;;;2.10;;
33864;SDS011;20159;51.072;13.526;2022-09-21T09:03:58;2.75;;;1.67;;
33864;SDS011;20159;51.072;13.526;2022-09-21T09:15:25;3.40;;;1.83;;
33864;SDS011;20159;51.072;13.526;2022-09-21T09:20:38;7.28;;;1.58;;
33864;SDS011;20159;51.072;13.526;2022-09-21T09:23:19;3.38;;;1.75;;
33864;SDS011;20159;51.072;13.526;2022-09-21T09:25:52;4.00;;;2.00;;
33864;SDS011;20159;51.072;13.526;2022-09-21T09:28:28;4.63;;;1.67;;
33864;SDS011;20159;51.072;13.526;2022-09-21T09:31:02;2.22;;;1.40;;
33864;SDS011;20159;51.072;13.526;2022-09-21T09:33:58;4.45;;;2.03;;
33864;SDS011;20159;51.072;13.526;2022-09-21T09:36:29;4.60;;;1.70;;
33864;SDS011;20159;51.072;13.526;2022-09-21T09:38:57;3.88;;;1.73;;
33864;SDS011;20159;51.072;13.526;2022-09-21T09:41:34;3.60;;;1.95;;
33864;SDS011;20159;51.072;13.526;2022-09-21T09:44:17;3.55;;;1.92;;
33864;SDS011;20159;51.072;13.526;2022-09-21T09:52:30;3.38;;;1.88;;
33864;SDS011;20159;51.072;13.526;2022-09-21T09:54:57;2.67;;;1.70;;
33864;SDS011;20159;51.072;13.526;2022-09-21T09:57:26;2.75;;;1.83;;
33864;SDS011;20159;51.072;13.526;2022-09-21T09:59:54;2.72;;;1.80;;
33864;SDS011;20159;51.072;13.526;2022-09-21T10:02:26;2.13;;;1.38;;
33864;SDS011;20159;51.072;13.526;2022-09-21T10:04:53;3.63;;;1.67;;
33864;SDS011;20159;51.072;13.526;2022-09-21T10:07:32;2.70;;;2.00;;
33864;SDS011;20159;51.072;13.526;2022-09-21T10:12:53;2.63;;;1.60;;
33864;SDS011;20159;51.072;13.526;2022-09-21T10:15:42;3.05;;;2.10;;
33864;SDS011;20159;51.072;13.526;2022-09-21T10:21:05;2.97;;;1.40;;
33864;SDS011;20159;51.072;13.526;2022-09-21T10:23:44;2.10;;;1.60;;
33864;SDS011;20159;51.072;13.526;2022-09-21T10:26:13;2.40;;;1.77;;
33864;SDS011;20159;51.072;13.526;2022-09-21T10:28:56;2.47;;;1.60;;
33864;SDS011;20159;51.072;13.526;2022-09-21T10:31:27;3.75;;;1.48;;
33864;SDS011;20159;51.072;13.526;2022-09-21T10:34:04;5.22;;;1.50;;
33864;SDS011;20159;51.072;13.526;2022-09-21T10:36:38;2.28;;;1.48;;
33864;SDS011;20159;51.072;13.526;2022-09-21T10:39:17;2.10;;;1.23;;
33864;SDS011;20159;51.072;13.526;2022-09-21T10:41:46;1.63;;;1.13;;
33864;SDS011;20159;51.072;13.526;2022-09-21T10:44:18;3.67;;;1.67;;
33864;SDS011;20159;51.072;13.526;2022-09-21T10:46:46;3.50;;;1.55;;
33864;SDS011;20159;51.072;13.526;2022-09-21T10:49:14;3.70;;;1.70;;
33864;SDS011;20159;51.072;13.526;2022-09-21T10:51:45;2.50;;;1.77;;
33864;SDS011;20159;51.072;13.526;2022-09-21T10:54:15;2.70;;;1.63;;
33864;SDS011;20159;51.072;13.526;2022-09-21T10:56:50;1.75;;;1.20;;
33864;SDS011;20159;51.072;13.526;2022-09-21T11:01:43;3.63;;;1.65;;
33864;SDS011;20159;51.072;13.526;2022-09-21T11:04:15;1.80;;;1.33;;
33864;SDS011;20159;51.072;13.526;2022-09-21T11:07:06;2.08;;;1.48;;
33864;SDS011;20159;51.072;13.526;2022-09-21T11:12:29;3.92;;;1.70;;
33864;SDS011;20159;51.072;13.526;2022-09-21T11:15:11;3.13;;;1.40;;
33864;SDS011;20159;51.072;13.526;2022-09-21T11:18:11;3.58;;;1.38;;
33864;SDS011;20159;51.072;13.526;2022-09-21T11:26:36;1.65;;;1.10;;
33864;SDS011;20159;51.072;13.526;2022-09-21T11:35:15;1.58;;;1.15;;
33864;SDS011;20159;51.072;13.526;2022-09-21T11:38:17;1.80;;;1.10;;
33864;SDS011;20159;51.072;13.526;2022-09-21T11:44:12;1.60;;;0.98;;
33864;SDS011;20159;51.072;13.526;2022-09-21T11:47:16;2.20;;;1.10;;
33864;SDS011;20159;51.072;13.526;2022-09-21T11:52:53;2.78;;;1.00;;
33864;SDS011;20159;51.072;13.526;2022-09-21T12:01:22;3.58;;;0.75;;
33864;SDS011;20159;51.072;13.526;2022-09-21T12:06:51;1.30;;;0.93;;
33864;SDS011;20159;51.072;13.526;2022-09-21T12:09:45;3.03;;;1.00;;
33864;SDS011;20159;51.072;13.526;2022-09-21T12:12:27;2.45;;;0.90;;
33864;SDS011;20159;51.072;13.526;2022-09-21T12:17:43;2.33;;;1.17;;
33864;SDS011;20159;51.072;13.526;2022-09-21T12:20:52;1.50;;;1.02;;
33864;SDS011;20159;51.072;13.526;2022-09-21T12:23:17;2.08;;;0.93;;
33864;SDS011;20159;51.072;13.526;2022-09-21T12:25:50;2.30;;;1.00;;
33864;SDS011;20159;51.072;13.526;2022-09-21T12:28:40;1.55;;;0.98;;
33864;SDS011;20159;51.072;13.526;2022-09-21T12:31:11;2.55;;;0.80;;
33864;SDS011;20159;51.072;13.526;2022-09-21T12:33:50;2.50;;;0.95;;
33864;SDS011;20159;51.072;13.526;2022-09-21T12:42:12;1.52;;;0.88;;
33864;SDS011;20159;51.072;13.526;2022-09-21T12:44:47;3.72;;;1.00;;
33864;SDS011;20159;51.072;13.526;2022-09-21T12:47:24;2.05;;;0.88;;
33864;SDS011;20159;51.072;13.526;2022-09-21T12:50:55;1.98;;;0.80;;
33864;SDS011;20159;51.072;13.526;2022-09-21T12:53:04;1.63;;;0.82;;
33864;SDS011;20159;51.072;13.526;2022-09-21T12:55:39;3.45;;;1.23;;
33864;SDS011;20159;51.072;13.526;2022-09-21T12:58:23;2.47;;;1.02;;
33864;SDS011;20159;51.072;13.526;2022-09-21T13:04:17;1.30;;;0.75;;
33864;SDS011;20159;51.072;13.526;2022-09-21T13:09:46;1.48;;;0.70;;
33864;SDS011;20159;51.072;13.526;2022-09-21T13:12:19;1.10;;;0.73;;
33864;SDS011;20159;51.072;13.526;2022-09-21T13:14:50;1.63;;;0.70;;
33864;SDS011;20159;51.072;13.526;2022-09-21T13:17:23;1.63;;;0.80;;
33864;SDS011;20159;51.072;13.526;2022-09-21T13:19:54;1.40;;;0.60;;
33864;SDS011;20159;51.072;13.526;2022-09-21T13:22:28;1.45;;;0.70;;
33864;SDS011;20159;51.072;13.526;2022-09-21T13:25:04;1.42;;;0.80;;
33864;SDS011;20159;51.072;13.526;2022-09-21T13:27:54;3.17;;;0.57;;
33864;SDS011;20159;51.072;13.526;2022-09-21T13:33:01;1.40;;;0.80;;
33864;SDS011;20159;51.072;13.526;2022-09-21T13:49:12;1.60;;;0.65;;
33864;SDS011;20159;51.072;13.526;2022-09-21T14:00:02;2.13;;;0.60;;
33864;SDS011;20159;51.072;13.526;2022-09-21T14:02:38;1.30;;;0.83;;
33864;SDS011;20159;51.072;13.526;2022-09-21T14:05:23;2.95;;;0.60;;
33864;SDS011;20159;51.072;13.526;2022-09-21T14:10:38;1.83;;;0.60;;
33864;SDS011;20159;51.072;13.526;2022-09-21T14:13:06;1.90;;;0.80;;
33864;SDS011;20159;51.072;13.526;2022-09-21T14:18:49;1.48;;;0.55;;
33864;SDS011;20159;51.072;13.526;2022-09-21T14:21:15;1.13;;;0.45;;
33864;SDS011;20159;51.072;13.526;2022-09-21T14:26:45;2.10;;;0.50;;
33864;SDS011;20159;51.072;13.526;2022-09-21T14:29:46;0.77;;;0.52;;
33864;SDS011;20159;51.072;13.526;2022-09-21T14:32:24;1.88;;;0.60;;
33864;SDS011;20159;51.072;13.526;2022-09-21T14:34:59;1.23;;;0.50;;
33864;SDS011;20159;51.072;13.526;2022-09-21T14:37:36;1.15;;;0.60;;
33864;SDS011;20159;51.072;13.526;2022-09-21T14:40:17;2.22;;;0.60;;
33864;SDS011;20159;51.072;13.526;2022-09-21T14:42:49;1.00;;;0.40;;
33864;SDS011;20159;51.072;13.526;2022-09-21T14:45:17;2.05;;;0.80;;
33864;SDS011;20159;51.072;13.526;2022-09-21T14:48:04;1.80;;;0.73;;
33864;SDS011;20159;51.072;13.526;2022-09-21T14:50:45;2.83;;;0.90;;
33864;SDS011;20159;51.072;13.526;2022-09-21T14:56:23;1.50;;;0.60;;
33864;SDS011;20159;51.072;13.526;2022-09-21T15:01:36;2.33;;;0.60;;
33864;SDS011;20159;51.072;13.526;2022-09-21T15:07:28;1.70;;;0.60;;
33864;SDS011;20159;51.072;13.526;2022-09-21T15:10:23;1.20;;;0.50;;
33864;SDS011;20159;51.072;13.526;2022-09-21T15:21:54;1.15;;;0.60;;
33864;SDS011;20159;51.072;13.526;2022-09-21T15:24:22;1.17;;;0.70;;
33864;SDS011;20159;51.072;13.526;2022-09-21T15:27:06;2.65;;;0.70;;
33864;SDS011;20159;51.072;13.526;2022-09-21T15:29:40;2.85;;;0.80;;
33864;SDS011;20159;51.072;13.526;2022-09-21T15:32:15;1.42;;;0.60;;
33864;SDS011;20159;51.072;13.526;2022-09-21T15:34:58;1.83;;;0.68;;
33864;SDS011;20159;51.072;13.526;2022-09-21T15:37:26;0.95;;;0.55;;
33864;SDS011;20159;51.072;13.526;2022-09-21T15:40:02;1.33;;;0.65;;
33864;SDS011;20159;51.072;13.526;2022-09-21T15:42:29;1.20;;;0.50;;
33864;SDS011;20159;51.072;13.526;2022-09-21T15:45:09;1.35;;;0.73;;
33864;SDS011;20159;51.072;13.526;2022-09-21T15:47:39;2.65;;;0.90;;
33864;SDS011;20159;51.072;13.526;2022-09-21T15:50:12;2.42;;;0.93;;
33864;SDS011;20159;51.072;13.526;2022-09-21T15:52:50;1.65;;;0.75;;
33864;SDS011;20159;51.072;13.526;2022-09-21T15:55:20;2.13;;;0.70;;
33864;SDS011;20159;51.072;13.526;2022-09-21T15:57:47;1.70;;;0.70;;
33864;SDS011;20159;51.072;13.526;2022-09-21T16:02:49;1.55;;;0.90;;
33864;SDS011;20159;51.072;13.526;2022-09-21T16:05:31;0.77;;;0.50;;
33864;SDS011;20159;51.072;13.526;2022-09-21T16:08:34;1.02;;;0.60;;
33864;SDS011;20159;51.072;13.526;2022-09-21T16:11:09;1.42;;;0.80;;
33864;SDS011;20159;51.072;13.526;2022-09-21T16:13:43;1.38;;;0.75;;
33864;SDS011;20159;51.072;13.526;2022-09-21T16:16:29;1.35;;;0.75;;
33864;SDS011;20159;51.072;13.526;2022-09-21T16:18:56;2.42;;;0.80;;
33864;SDS011;20159;51.072;13.526;2022-09-21T16:21:34;1.83;;;0.70;;
33864;SDS011;20159;51.072;13.526;2022-09-21T16:24:09;0.98;;;0.55;;
33864;SDS011;20159;51.072;13.526;2022-09-21T16:26:57;1.10;;;0.73;;
33864;SDS011;20159;51.072;13.526;2022-09-21T16:29:26;1.75;;;0.90;;
33864;SDS011;20159;51.072;13.526;2022-09-21T16:32:18;1.85;;;0.73;;
33864;SDS011;20159;51.072;13.526;2022-09-21T16:34:52;1.70;;;0.80;;
33864;SDS011;20159;51.072;13.526;2022-09-21T16:37:28;2.58;;;0.60;;
33864;SDS011;20159;51.072;13.526;2022-09-21T16:39:54;0.68;;;0.50;;
33864;SDS011;20159;51.072;13.526;2022-09-21T16:42:22;2.17;;;0.80;;
33864;SDS011;20159;51.072;13.526;2022-09-21T16:44:56;1.67;;;0.80;;
33864;SDS011;20159;51.072;13.526;2022-09-21T16:47:23;1.67;;;0.95;;
33864;SDS011;20159;51.072;13.526;2022-09-21T16:49:50;1.15;;;0.80;;
33864;SDS011;20159;51.072;13.526;2022-09-21T16:52:21;2.00;;;0.68;;
33864;SDS011;20159;51.072;13.526;2022-09-21T16:54:47;1.63;;;1.00;;
33864;SDS011;20159;51.072;13.526;2022-09-21T16:57:16;2.58;;;0.80;;
33864;SDS011;20159;51.072;13.526;2022-09-21T16:59:42;2.50;;;0.80;;
33864;SDS011;20159;51.072;13.526;2022-09-21T17:02:09;1.77;;;0.98;;
33864;SDS011;20159;51.072;13.526;2022-09-21T17:04:36;1.60;;;0.90;;
33864;SDS011;20159;51.072;13.526;2022-09-21T17:07:01;3.03;;;1.05;;
33864;SDS011;20159;51.072;13.526;2022-09-21T17:09:30;1.33;;;1.00;;
33864;SDS011;20159;51.072;13.526;2022-09-21T17:12:02;1.10;;;0.73;;
33864;SDS011;20159;51.072;13.526;2022-09-21T17:14:31;1.02;;;0.80;;
33864;SDS011;20159;51.072;13.526;2022-09-21T17:16:59;2.58;;;1.20;;
33864;SDS011;20159;51.072;13.526;2022-09-21T17:22:13;1.13;;;0.93;;
33864;SDS011;20159;51.072;13.526;2022-09-21T17:24:42;3.65;;;1.10;;
33864;SDS011;20159;51.072;13.526;2022-09-21T17:27:09;1.95;;;0.90;;
33864;SDS011;20159;51.072;13.526;2022-09-21T17:29:36;1.77;;;0.95;;
33864;SDS011;20159;51.072;13.526;2022-09-21T17:32:04;2.88;;;1.00;;
33864;SDS011;20159;51.072;13.526;2022-09-21T17:34:34;1.90;;;1.10;;
33864;SDS011;20159;51.072;13.526;2022-09-21T17:37:00;1.00;;;0.90;;
33864;SDS011;20159;51.072;13.526;2022-09-21T17:39:26;1.75;;;1.05;;
33864;SDS011;20159;51.072;13.526;2022-09-21T17:41:55;1.98;;;0.90;;
33864;SDS011;20159;51.072;13.526;2022-09-21T17:47:37;1.70;;;1.05;;